메인 페이지
METAR-TAF:

METAR-TAF

공항 :

차트라파티 시바지 국제공항

뭄바이, 인도

위도: 19-07N, 경도: 072-51E, 고도: 8m

현재 날씨관측

예보는 36분 전, 18:00시(UTC)에 발표되었습니다.
북북서4kt
온도 25°C
습도 83%
기압 1016 hPa
시정: 2500m
고도 10000ft 상공 구름 조금
연무

METAR: VABB 201800Z 34004KT 2500 HZ FEW100 25/22 Q1016 NOSIG

시각: 00:06 (18:36 UTC)

예보

예보는 1 시간 36분 전, 17:00시(UTC)에 발표되었습니다.
예보 대상 시간: 20일 18시부터 21일 03시까지 (UTC)
여러 방향의 바람 5kt
시정: 3000m
연무
전환 중
21일 00시부터 21일 02시까지 (UTC)
시정: 2500m
연무

TAF: VABB 201700Z 2018/2103 VRB05KT 3000 HZ NSC BECMG 2100/2102 2500 HZ

4,000개 이상의 공항 관측 자료 및 예보 (METAR 및 TAF 보고).

지도상에서 검색 가능한 기상관측소가 노란 점과 빨간 점으로 표시되어 있습니다.

기상관측소 명을 보려면 표시 위로 마우스를 이동하세요.

날씨 관측과 예보를 보려면 클릭하세요.

지도 변경 : 확대하려면 엑스 표시가 있는 녹색 버튼, 축소하려면 빼기 표시가 있는 녹색 버튼, 다음 페이지의 지도를 보려면 녹색 화살표를 클릭하세요.


METAR-TAF: